AirNav   Duncan Aviation - Near you to keep you flying
 
 1033 users online  

12OH McGregor Airfield
Brookville, Ohio, USA

GOING TO BROOKVILLE?


FAA INFORMATION EFFECTIVE 09 SEPTEMBER 2021

Location

FAA Identifier: 12OH
Lat/Long: 39-50-05.1990N 084-20-04.8040W
39-50.086650N 084-20.080067W
39.8347775,-84.3346678
(estimated)
Elevation: 940 ft. / 286.5 m (surveyed)
Variation: 04W (1990)
From city: 4 miles E of BROOKVILLE, OH
Time zone: UTC -4 (UTC -5 during Standard Time)
Zip code: 45315

Airport Operations

Airport use: Private use, PERSONAL USE.
Activation date: 10/1994
Control tower: no
ARTCC: INDIANAPOLIS CENTER
FSS: DAYTON FLIGHT SERVICE STATION
Attendance: UNATNDD
Wind indicator: yes
Segmented circle: no

Airport Communications

WX ASOS at DAY (7 nm NE): PHONE 937-415-6819
WX ASOS at MGY (16 nm S): 118.375 (937-885-2171)
WX AWOS-3 at I19 (18 nm SE): 118.525 (937-372-4668)
WX AWOS-3 at MWO (18 nm S): 120.025 (513-422-3505)

Nearby radio navigation aids

VOR radial/distance  VOR name  Freq  Var
DQNr166/11.3DAYTON VOR/DME114.5001W
RODr211/30.3ROSEWOOD VORTAC117.5005W
MXQr319/34.6MIDWEST VOR/DME112.9004W

 
NDB name  Hdg/Dist  Freq  Var  ID
BRUNYat field31506WAT .- -
HOOK FIELD018/20.823904WHKF .... -.- ..-.

Airport Services

Runway Information

Runway 17/35

Dimensions: 1030 x 100 ft. / 314 x 30 m
Surface: turf
RUNWAY 17  RUNWAY 35
Traffic pattern: rightleft
Obstructions: none50 ft. pline, marked, 430 ft. from runway

Airport Ownership and Management from official FAA records

Ownership: Privately-owned
Owner: LARRY MCGREGOR
7317 WESTBROOK RD
BROOKVILLE, OH 45309
Phone 513-854-3888
Manager: LARRY MCGREGOR
7317 WESTBROOK RD
BROOKVILLE, OH 45309
Phone 513-854-3888

Airport Operational Statistics

Aircraft based on the field: 1
Single engine airplanes: 1
    

Additional Remarks

FOR CD CTC COLUMBUS APCH AT 614-338-8537

Instrument Procedures

There are no published instrument procedures at 12OH.

Some nearby airports with instrument procedures:

3I7 - Dayton-Phillipsburg Airport (6 nm NW)
KDAY - James M Cox Dayton International Airport (7 nm NE)
KFFO - Wright-Patterson Air Force Base (13 nm E)
KMGY - Dayton-Wright Brothers Airport (16 nm S)
I19 - Greene County-Lewis A Jackson Regional Airport (18 nm SE)
KMWO - Middletown Regional Airport/Hook Field (18 nm S)
I17 - Piqua Airport/Hartzell Field (20 nm N)
 
Loc | Ops | Rwys | IFR | FBO | Links
Com | Nav | Svcs | Stats | Notes
Area around 12OH (McGregor Airfield)
 
Road maps at: MapQuest Bing Google
 
Aerial photo
No photo
 
Sectional chart

 
Airport distance calculator
Flying to McGregor Airfield? Find the distance to fly.

From to 12OH

Sunrise and sunset
Times for 21-Sep-2021
 Local
(UTC-4)
 Zulu
(UTC)
Morning civil twilight06:5810:58
Sunrise07:2511:25
Sunset19:3623:36
Evening civil twilight20:0300:03

Current date and time
Zulu (UTC)  22-Sep-2021 00:10:43
Local (UTC-4)  21-Sep-2021 20:10:43
 
METAR
KDAY 
7nm NE 
212356Z 14006KT 8SM FEW009 BKN015 OVC027 22/19 A3003 RMK AO2 CIG 006 RWY 6L SLP164 60000 T02170194 10233 20217 58004
KFFO 
14nm E 
212337Z 14005KT 6SM BR SCT007 BKN016 OVC027 21/19 A3002 RMK AO2A SLP165 55007
KMGY 
15nm S 
212353Z AUTO 15005KT 9SM -RA BKN007 BKN022 OVC046 21/20 A3002 RMK AO2 RAE2259B49 CIG 006V012 SLP159 P0000 60000 T02110200 10228 20211 58004
KMWO 
18nm S 
212355Z AUTO 15004KT 10SM BKN013 BKN020 OVC044 22/22 A3002 RMK AO2 T02190218 10236 20219 402360180
TAF
KDAY 
7nm NE 
211720Z 2118/2218 18010KT P6SM OVC018 FM220200 16006KT 4SM SHRA BR BKN009 FM220700 33010G16KT 4SM SHRA BR BKN007 FM221400 35015KT 5SM -SHRA BR OVC005
KFFO 
14nm E 
212228Z 2122/2301 17009KT 9000 -SHRA BR SCT008 OVC012 QNH3002INS BECMG 2122/2123 17009KT 8000 -SHRA BR OVC007 QNH2996INS BECMG 2200/2202 18009KT 8000 -SHRA FEW008 OVC015 QNH2980INS TEMPO 2204/2209 VRB12G18KT 3200 TSRA BR SCT008 OVC012CB BECMG 2209/2210 16009KT 6000 SHRA BKN003 OVC008 QNH2979INS BECMG 2212/2213 33010G15KT 3200 RA BR OVC003 510103 QNH2978INS BECMG 2215/2216 35015G20KT 4800 -RA BR SCT003 OVC008 510004 QNH2972INS BECMG 2220/2221 31012KT 8000 -RA BKN003 OVC007 510102 QNH2971INS TX22/
NOTAMs
Click for the latest NOTAMs
NOTAMs are issued by the DoD/FAA and will open in a separate window not controlled by AirNav.

 

 
 

Would you like to see your business listed on this page?

 If your business provides an interesting product or service to pilots, flight crews, aircraft, or users of the McGregor Airfield, you should consider listing it here.  To start the listing process, click on the button below
 
Add a business
 

Other Pages about McGregor Airfield

Update a link
 
Copyright © AirNav, LLC. All rights reserved. Privacy Policy  Contact